sensor_id;sensor_type;location;lat;lon;timestamp;P1;durP1;ratioP1;P2;durP2;ratioP2
61675;SDS011;47574;52.090;5.244;2022-08-19T00:01:21;6.4;;;5.9;;
61675;SDS011;47574;52.090;5.244;2022-08-19T00:04:36;6.9;;;6.2;;
61675;SDS011;47574;52.090;5.244;2022-08-19T00:06:12;8.0;;;7.2;;
61675;SDS011;47574;52.090;5.244;2022-08-19T00:07:49;7.9;;;7.3;;
61675;SDS011;47574;52.090;5.244;2022-08-19T00:11:03;8.4;;;7.6;;
61675;SDS011;47574;52.090;5.244;2022-08-19T00:12:41;8.5;;;7.7;;
61675;SDS011;47574;52.090;5.244;2022-08-19T00:14:18;8.6;;;7.8;;
61675;SDS011;47574;52.090;5.244;2022-08-19T00:15:55;7.2;;;6.7;;
61675;SDS011;47574;52.090;5.244;2022-08-19T00:19:07;7.0;;;6.4;;
61675;SDS011;47574;52.090;5.244;2022-08-19T00:20:45;7.6;;;6.9;;
61675;SDS011;47574;52.090;5.244;2022-08-19T00:22:20;8.2;;;6.6;;
61675;SDS011;47574;52.090;5.244;2022-08-19T00:25:36;6.9;;;6.2;;
61675;SDS011;47574;52.090;5.244;2022-08-19T00:27:12;7.2;;;6.5;;
61675;SDS011;47574;52.090;5.244;2022-08-19T00:28:49;6.3;;;5.7;;
61675;SDS011;47574;52.090;5.244;2022-08-19T00:30:27;6.2;;;5.7;;
61675;SDS011;47574;52.090;5.244;2022-08-19T00:33:41;6.7;;;6.0;;
61675;SDS011;47574;52.090;5.244;2022-08-19T00:35:18;6.7;;;5.8;;
61675;SDS011;47574;52.090;5.244;2022-08-19T00:36:54;6.3;;;5.7;;
61675;SDS011;47574;52.090;5.244;2022-08-19T00:40:10;6.3;;;5.8;;
61675;SDS011;47574;52.090;5.244;2022-08-19T00:41:49;6.4;;;5.9;;
61675;SDS011;47574;52.090;5.244;2022-08-19T00:43:27;5.7;;;5.2;;
61675;SDS011;47574;52.090;5.244;2022-08-19T00:45:05;5.0;;;4.7;;
61675;SDS011;47574;52.090;5.244;2022-08-19T00:48:26;5.3;;;4.8;;
61675;SDS011;47574;52.090;5.244;2022-08-19T00:50:02;4.7;;;4.41;;
61675;SDS011;47574;52.090;5.244;2022-08-19T00:51:41;7.7;;;4.5;;
61675;SDS011;47574;52.090;5.244;2022-08-19T00:55:04;4.91;;;4.41;;
61675;SDS011;47574;52.090;5.244;2022-08-19T00:56:44;4.0;;;3.8;;
61675;SDS011;47574;52.090;5.244;2022-08-19T00:58:22;4.41;;;4.1;;
61675;SDS011;47574;52.090;5.244;2022-08-19T01:00:06;4.61;;;4.2;;
61675;SDS011;47574;52.090;5.244;2022-08-19T01:03:23;4.2;;;3.9;;
61675;SDS011;47574;52.090;5.244;2022-08-19T01:05:00;4.5;;;4.1;;
61675;SDS011;47574;52.090;5.244;2022-08-19T01:06:41;4.7;;;4.3;;
61675;SDS011;47574;52.090;5.244;2022-08-19T01:08:17;4.2;;;3.8;;
61675;SDS011;47574;52.090;5.244;2022-08-19T01:11:33;4.3;;;4.0;;
61675;SDS011;47574;52.090;5.244;2022-08-19T01:13:19;4.41;;;4.1;;
61675;SDS011;47574;52.090;5.244;2022-08-19T01:14:58;4.5;;;4.1;;
61675;SDS011;47574;52.090;5.244;2022-08-19T01:16:35;5.2;;;4.1;;
61675;SDS011;47574;52.090;5.244;2022-08-19T01:19:53;3.8;;;3.5;;
61675;SDS011;47574;52.090;5.244;2022-08-19T01:21:30;4.3;;;4.0;;
61675;SDS011;47574;52.090;5.244;2022-08-19T01:23:20;3.9;;;3.7;;
61675;SDS011;47574;52.090;5.244;2022-08-19T01:24:56;4.61;;;4.2;;
61675;SDS011;47574;52.090;5.244;2022-08-19T01:28:16;6.2;;;4.3;;
61675;SDS011;47574;52.090;5.244;2022-08-19T01:29:54;4.5;;;4.2;;
61675;SDS011;47574;52.090;5.244;2022-08-19T01:31:31;5.0;;;4.41;;
61675;SDS011;47574;52.090;5.244;2022-08-19T01:34:46;4.5;;;4.2;;
61675;SDS011;47574;52.090;5.244;2022-08-19T01:36:23;4.5;;;4.2;;
61675;SDS011;47574;52.090;5.244;2022-08-19T01:38:05;4.5;;;4.2;;
61675;SDS011;47574;52.090;5.244;2022-08-19T01:39:46;4.0;;;3.7;;
61675;SDS011;47574;52.090;5.244;2022-08-19T01:43:00;4.3;;;4.0;;
61675;SDS011;47574;52.090;5.244;2022-08-19T01:44:37;4.41;;;4.0;;
61675;SDS011;47574;52.090;5.244;2022-08-19T01:46:15;4.61;;;4.2;;
61675;SDS011;47574;52.090;5.244;2022-08-19T01:47:52;4.5;;;4.1;;
61675;SDS011;47574;52.090;5.244;2022-08-19T01:51:06;4.8;;;4.2;;
61675;SDS011;47574;52.090;5.244;2022-08-19T01:52:45;4.5;;;4.1;;
61675;SDS011;47574;52.090;5.244;2022-08-19T01:54:23;4.8;;;4.41;;
61675;SDS011;47574;52.090;5.244;2022-08-19T01:57:39;4.8;;;4.3;;
61675;SDS011;47574;52.090;5.244;2022-08-19T01:59:20;4.2;;;3.9;;
61675;SDS011;47574;52.090;5.244;2022-08-19T02:00:59;5.3;;;4.61;;
61675;SDS011;47574;52.090;5.244;2022-08-19T02:02:36;5.2;;;4.8;;
61675;SDS011;47574;52.090;5.244;2022-08-19T02:05:53;4.8;;;4.5;;
61675;SDS011;47574;52.090;5.244;2022-08-19T02:07:32;5.0;;;4.7;;
61675;SDS011;47574;52.090;5.244;2022-08-19T02:09:09;5.8;;;5.3;;
61675;SDS011;47574;52.090;5.244;2022-08-19T02:12:22;5.8;;;5.3;;
61675;SDS011;47574;52.090;5.244;2022-08-19T02:13:58;5.7;;;5.3;;
61675;SDS011;47574;52.090;5.244;2022-08-19T02:15:36;5.7;;;5.3;;
61675;SDS011;47574;52.090;5.244;2022-08-19T02:17:13;6.0;;;5.5;;
61675;SDS011;47574;52.090;5.244;2022-08-19T02:20:26;7.3;;;6.6;;
61675;SDS011;47574;52.090;5.244;2022-08-19T02:23:40;8.31;;;7.6;;
61675;SDS011;47574;52.090;5.244;2022-08-19T02:26:52;8.71;;;8.0;;
61675;SDS011;47574;52.090;5.244;2022-08-19T02:28:29;9.5;;;8.0;;
61675;SDS011;47574;52.090;5.244;2022-08-19T02:30:07;9.5;;;8.71;;
61675;SDS011;47574;52.090;5.244;2022-08-19T02:31:47;10.21;;;9.4;;
61675;SDS011;47574;52.090;5.244;2022-08-19T02:35:00;10.6;;;9.71;;
61675;SDS011;47574;52.090;5.244;2022-08-19T02:36:36;10.9;;;9.9;;
61675;SDS011;47574;52.090;5.244;2022-08-19T02:38:29;11.3;;;10.3;;
61675;SDS011;47574;52.090;5.244;2022-08-19T02:41:44;11.9;;;10.8;;
61675;SDS011;47574;52.090;5.244;2022-08-19T02:43:20;12.1;;;10.5;;
61675;SDS011;47574;52.090;5.244;2022-08-19T02:44:58;11.4;;;10.21;;
61675;SDS011;47574;52.090;5.244;2022-08-19T02:46:34;12.0;;;10.9;;
61675;SDS011;47574;52.090;5.244;2022-08-19T02:49:49;11.1;;;10.21;;
61675;SDS011;47574;52.090;5.244;2022-08-19T02:51:26;11.5;;;10.4;;
61675;SDS011;47574;52.090;5.244;2022-08-19T02:53:08;11.0;;;9.9;;
61675;SDS011;47574;52.090;5.244;2022-08-19T02:56:22;11.0;;;10.0;;
61675;SDS011;47574;52.090;5.244;2022-08-19T02:57:59;8.9;;;8.1;;
61675;SDS011;47574;52.090;5.244;2022-08-19T02:59:36;6.9;;;6.4;;
61675;SDS011;47574;52.090;5.244;2022-08-19T03:01:19;6.1;;;5.5;;
61675;SDS011;47574;52.090;5.244;2022-08-19T03:04:33;6.7;;;6.2;;
61675;SDS011;47574;52.090;5.244;2022-08-19T03:06:11;6.9;;;6.4;;
61675;SDS011;47574;52.090;5.244;2022-08-19T03:07:49;7.1;;;6.5;;
61675;SDS011;47574;52.090;5.244;2022-08-19T03:09:25;7.4;;;6.8;;
61675;SDS011;47574;52.090;5.244;2022-08-19T03:12:40;8.0;;;7.4;;
61675;SDS011;47574;52.090;5.244;2022-08-19T03:14:18;9.1;;;8.31;;
61675;SDS011;47574;52.090;5.244;2022-08-19T03:15:54;9.81;;;8.9;;
61675;SDS011;47574;52.090;5.244;2022-08-19T03:19:06;10.0;;;9.1;;
61675;SDS011;47574;52.090;5.244;2022-08-19T03:20:43;10.0;;;9.0;;
61675;SDS011;47574;52.090;5.244;2022-08-19T03:22:21;10.7;;;9.6;;
61675;SDS011;47574;52.090;5.244;2022-08-19T03:25:43;9.81;;;8.81;;
61675;SDS011;47574;52.090;5.244;2022-08-19T03:27:24;9.5;;;8.6;;
61675;SDS011;47574;52.090;5.244;2022-08-19T03:29:02;9.4;;;8.5;;
61675;SDS011;47574;52.090;5.244;2022-08-19T03:30:41;9.81;;;8.81;;
61675;SDS011;47574;52.090;5.244;2022-08-19T03:33:55;9.9;;;8.9;;
61675;SDS011;47574;52.090;5.244;2022-08-19T03:35:31;9.4;;;8.5;;
61675;SDS011;47574;52.090;5.244;2022-08-19T03:37:08;9.5;;;8.6;;
61675;SDS011;47574;52.090;5.244;2022-08-19T03:38:49;7.8;;;7.0;;
61675;SDS011;47574;52.090;5.244;2022-08-19T03:42:06;8.2;;;7.4;;
61675;SDS011;47574;52.090;5.244;2022-08-19T03:43:46;8.0;;;7.3;;
61675;SDS011;47574;52.090;5.244;2022-08-19T03:45:23;8.2;;;7.4;;
61675;SDS011;47574;52.090;5.244;2022-08-19T03:48:37;8.2;;;7.4;;
61675;SDS011;47574;52.090;5.244;2022-08-19T03:50:14;10.4;;;9.21;;
61675;SDS011;47574;52.090;5.244;2022-08-19T03:51:52;8.1;;;7.3;;
61675;SDS011;47574;52.090;5.244;2022-08-19T03:53:30;9.31;;;8.4;;
61675;SDS011;47574;52.090;5.244;2022-08-19T03:56:46;11.2;;;10.21;;
61675;SDS011;47574;52.090;5.244;2022-08-19T03:58:24;11.7;;;10.5;;
61675;SDS011;47574;52.090;5.244;2022-08-19T04:00:05;12.0;;;10.9;;
61675;SDS011;47574;52.090;5.244;2022-08-19T04:03:19;12.9;;;11.6;;
61675;SDS011;47574;52.090;5.244;2022-08-19T04:04:55;12.6;;;11.4;;
61675;SDS011;47574;52.090;5.244;2022-08-19T04:06:32;12.2;;;11.1;;
61675;SDS011;47574;52.090;5.244;2022-08-19T04:08:11;12.9;;;11.6;;
61675;SDS011;47574;52.090;5.244;2022-08-19T04:11:25;11.3;;;10.21;;
61675;SDS011;47574;52.090;5.244;2022-08-19T04:13:04;13.8;;;12.4;;
61675;SDS011;47574;52.090;5.244;2022-08-19T04:14:41;13.6;;;12.3;;
61675;SDS011;47574;52.090;5.244;2022-08-19T04:17:56;13.0;;;11.7;;
61675;SDS011;47574;52.090;5.244;2022-08-19T04:19:33;12.5;;;11.3;;
61675;SDS011;47574;52.090;5.244;2022-08-19T04:21:14;11.8;;;10.6;;
61675;SDS011;47574;52.090;5.244;2022-08-19T04:22:52;13.4;;;12.0;;
61675;SDS011;47574;52.090;5.244;2022-08-19T04:26:06;13.1;;;11.8;;
61675;SDS011;47574;52.090;5.244;2022-08-19T04:27:46;13.1;;;11.5;;
61675;SDS011;47574;52.090;5.244;2022-08-19T04:29:25;13.8;;;12.4;;
61675;SDS011;47574;52.090;5.244;2022-08-19T04:31:01;14.3;;;12.6;;
61675;SDS011;47574;52.090;5.244;2022-08-19T04:34:17;15.6;;;13.6;;
61675;SDS011;47574;52.090;5.244;2022-08-19T04:35:58;14.2;;;12.7;;
61675;SDS011;47574;52.090;5.244;2022-08-19T04:37:34;13.8;;;12.3;;
61675;SDS011;47574;52.090;5.244;2022-08-19T04:43:48;14.1;;;12.6;;
61675;SDS011;47574;52.090;5.244;2022-08-19T04:47:00;15.0;;;12.7;;
61675;SDS011;47574;52.090;5.244;2022-08-19T04:48:37;14.3;;;12.8;;
61675;SDS011;47574;52.090;5.244;2022-08-19T04:50:15;16.11;;;14.4;;
61675;SDS011;47574;52.090;5.244;2022-08-19T04:53:31;17.2;;;14.2;;
61675;SDS011;47574;52.090;5.244;2022-08-19T04:55:10;16.11;;;14.4;;
61675;SDS011;47574;52.090;5.244;2022-08-19T04:56:49;17.41;;;14.4;;
61675;SDS011;47574;52.090;5.244;2022-08-19T04:58:27;19.8;;;16.61;;
61675;SDS011;47574;52.090;5.244;2022-08-19T05:01:42;20.2;;;16.5;;
61675;SDS011;47574;52.090;5.244;2022-08-19T05:03:18;20.0;;;16.7;;
61675;SDS011;47574;52.090;5.244;2022-08-19T05:04:57;19.0;;;16.9;;
61675;SDS011;47574;52.090;5.244;2022-08-19T05:08:12;20.6;;;16.8;;
61675;SDS011;47574;52.090;5.244;2022-08-19T05:09:50;19.61;;;17.2;;
61675;SDS011;47574;52.090;5.244;2022-08-19T05:11:27;19.7;;;17.2;;
61675;SDS011;47574;52.090;5.244;2022-08-19T05:13:09;20.0;;;17.8;;
61675;SDS011;47574;52.090;5.244;2022-08-19T05:16:26;19.0;;;16.11;;
61675;SDS011;47574;52.090;5.244;2022-08-19T05:24:29;25.8;;;20.41;;
61675;SDS011;47574;52.090;5.244;2022-08-19T05:26:06;27.8;;;21.0;;
61675;SDS011;47574;52.090;5.244;2022-08-19T05:27:42;24.0;;;20.0;;
61675;SDS011;47574;52.090;5.244;2022-08-19T05:30:57;24.7;;;19.7;;
61675;SDS011;47574;52.090;5.244;2022-08-19T05:32:34;24.5;;;19.61;;
61675;SDS011;47574;52.090;5.244;2022-08-19T05:34:11;27.7;;;22.2;;
61675;SDS011;47574;52.090;5.244;2022-08-19T05:37:27;25.4;;;21.6;;
61675;SDS011;47574;52.090;5.244;2022-08-19T05:39:03;29.1;;;24.1;;
61675;SDS011;47574;52.090;5.244;2022-08-19T05:40:41;30.3;;;24.7;;
61675;SDS011;47574;52.090;5.244;2022-08-19T05:42:20;32.71;;;26.3;;
61675;SDS011;47574;52.090;5.244;2022-08-19T05:45:37;35.6;;;27.7;;
61675;SDS011;47574;52.090;5.244;2022-08-19T05:47:15;34.9;;;27.5;;
61675;SDS011;47574;52.090;5.244;2022-08-19T05:48:53;36.5;;;28.0;;
61675;SDS011;47574;52.090;5.244;2022-08-19T05:52:07;38.5;;;27.7;;
61675;SDS011;47574;52.090;5.244;2022-08-19T05:53:46;37.5;;;28.1;;
61675;SDS011;47574;52.090;5.244;2022-08-19T05:55:23;37.5;;;28.1;;
61675;SDS011;47574;52.090;5.244;2022-08-19T05:57:00;37.4;;;28.6;;
61675;SDS011;47574;52.090;5.244;2022-08-19T06:00:14;39.0;;;29.3;;
61675;SDS011;47574;52.090;5.244;2022-08-19T06:01:54;38.1;;;29.4;;
61675;SDS011;47574;52.090;5.244;2022-08-19T06:03:31;43.5;;;31.5;;
61675;SDS011;47574;52.090;5.244;2022-08-19T06:06:46;42.3;;;32.3;;
61675;SDS011;47574;52.090;5.244;2022-08-19T06:08:24;45.8;;;31.9;;
61675;SDS011;47574;52.090;5.244;2022-08-19T06:10:02;42.9;;;31.6;;
61675;SDS011;47574;52.090;5.244;2022-08-19T06:11:41;44.9;;;31.9;;
61675;SDS011;47574;52.090;5.244;2022-08-19T06:14:57;42.7;;;31.1;;
61675;SDS011;47574;52.090;5.244;2022-08-19T06:16:36;46.5;;;32.9;;
61675;SDS011;47574;52.090;5.244;2022-08-19T06:18:14;46.3;;;34.0;;
61675;SDS011;47574;52.090;5.244;2022-08-19T06:19:51;49.1;;;33.8;;
61675;SDS011;47574;52.090;5.244;2022-08-19T06:23:06;47.2;;;34.31;;
61675;SDS011;47574;52.090;5.244;2022-08-19T06:24:43;50.3;;;35.21;;
61675;SDS011;47574;52.090;5.244;2022-08-19T06:26:19;47.3;;;33.6;;
61675;SDS011;47574;52.090;5.244;2022-08-19T06:29:34;49.6;;;35.0;;
61675;SDS011;47574;52.090;5.244;2022-08-19T06:31:14;54.8;;;36.71;;
61675;SDS011;47574;52.090;5.244;2022-08-19T06:32:52;52.3;;;36.4;;
61675;SDS011;47574;52.090;5.244;2022-08-19T06:34:30;60.3;;;38.31;;
61675;SDS011;47574;52.090;5.244;2022-08-19T06:37:53;57.7;;;37.31;;
61675;SDS011;47574;52.090;5.244;2022-08-19T06:39:30;68.0;;;39.81;;
61675;SDS011;47574;52.090;5.244;2022-08-19T06:41:14;67.91;;;40.21;;
61675;SDS011;47574;52.090;5.244;2022-08-19T06:42:50;75.61;;;41.8;;
61675;SDS011;47574;52.090;5.244;2022-08-19T06:46:10;75.61;;;41.8;;
61675;SDS011;47574;52.090;5.244;2022-08-19T06:47:48;78.41;;;45.2;;
61675;SDS011;47574;52.090;5.244;2022-08-19T06:49:31;80.61;;;46.9;;
61675;SDS011;47574;52.090;5.244;2022-08-19T06:52:44;81.0;;;46.7;;
61675;SDS011;47574;52.090;5.244;2022-08-19T06:54:20;72.7;;;43.9;;
61675;SDS011;47574;52.090;5.244;2022-08-19T06:56:00;78.5;;;44.6;;
61675;SDS011;47574;52.090;5.244;2022-08-19T06:57:36;73.8;;;43.8;;
61675;SDS011;47574;52.090;5.244;2022-08-19T07:01:01;71.7;;;43.4;;
61675;SDS011;47574;52.090;5.244;2022-08-19T07:02:39;74.91;;;43.8;;
61675;SDS011;47574;52.090;5.244;2022-08-19T07:05:56;70.61;;;43.5;;
61675;SDS011;47574;52.090;5.244;2022-08-19T07:09:12;75.11;;;45.2;;
61675;SDS011;47574;52.090;5.244;2022-08-19T07:10:53;72.41;;;43.9;;
61675;SDS011;47574;52.090;5.244;2022-08-19T07:12:29;76.11;;;45.3;;
61675;SDS011;47574;52.090;5.244;2022-08-19T07:15:46;70.8;;;42.1;;
61675;SDS011;47574;52.090;5.244;2022-08-19T07:17:22;71.0;;;43.1;;
61675;SDS011;47574;52.090;5.244;2022-08-19T07:18:59;70.7;;;42.7;;
61675;SDS011;47574;52.090;5.244;2022-08-19T07:20:36;63.4;;;42.0;;
61675;SDS011;47574;52.090;5.244;2022-08-19T07:23:51;64.91;;;41.6;;
61675;SDS011;47574;52.090;5.244;2022-08-19T07:25:28;63.0;;;41.4;;
61675;SDS011;47574;52.090;5.244;2022-08-19T07:27:04;63.0;;;41.4;;
61675;SDS011;47574;52.090;5.244;2022-08-19T07:30:23;65.6;;;42.6;;
61675;SDS011;47574;52.090;5.244;2022-08-19T07:31:59;65.91;;;41.2;;
61675;SDS011;47574;52.090;5.244;2022-08-19T07:33:37;59.6;;;40.81;;
61675;SDS011;47574;52.090;5.244;2022-08-19T07:35:14;61.0;;;38.31;;
61675;SDS011;47574;52.090;5.244;2022-08-19T07:38:28;59.3;;;39.0;;
61675;SDS011;47574;52.090;5.244;2022-08-19T07:40:05;59.2;;;38.6;;
61675;SDS011;47574;52.090;5.244;2022-08-19T07:41:43;54.5;;;37.31;;
61675;SDS011;47574;52.090;5.244;2022-08-19T07:45:03;61.7;;;40.0;;
61675;SDS011;47574;52.090;5.244;2022-08-19T07:46:50;59.1;;;38.1;;
61675;SDS011;47574;52.090;5.244;2022-08-19T07:48:29;55.1;;;37.31;;
61675;SDS011;47574;52.090;5.244;2022-08-19T07:50:06;56.1;;;36.81;;
61675;SDS011;47574;52.090;5.244;2022-08-19T07:53:25;54.6;;;36.1;;
61675;SDS011;47574;52.090;5.244;2022-08-19T07:55:04;57.6;;;37.81;;
61675;SDS011;47574;52.090;5.244;2022-08-19T07:56:42;53.1;;;35.5;;
61675;SDS011;47574;52.090;5.244;2022-08-19T07:58:19;53.1;;;35.5;;
61675;SDS011;47574;52.090;5.244;2022-08-19T08:01:35;54.1;;;33.5;;
61675;SDS011;47574;52.090;5.244;2022-08-19T08:03:12;49.6;;;33.6;;
61675;SDS011;47574;52.090;5.244;2022-08-19T08:09:29;47.7;;;30.7;;
61675;SDS011;47574;52.090;5.244;2022-08-19T08:11:08;42.8;;;28.9;;
61675;SDS011;47574;52.090;5.244;2022-08-19T08:14:23;45.5;;;29.5;;
61675;SDS011;47574;52.090;5.244;2022-08-19T08:16:03;44.0;;;29.2;;
61675;SDS011;47574;52.090;5.244;2022-08-19T08:17:40;43.4;;;29.4;;
61675;SDS011;47574;52.090;5.244;2022-08-19T08:19:18;40.9;;;29.6;;
61675;SDS011;47574;52.090;5.244;2022-08-19T08:23:38;43.7;;;29.7;;
61675;SDS011;47574;52.090;5.244;2022-08-19T08:25:15;40.4;;;28.5;;
61675;SDS011;47574;52.090;5.244;2022-08-19T08:26:55;43.7;;;30.0;;
61675;SDS011;47574;52.090;5.244;2022-08-19T08:28:35;43.2;;;28.4;;
61675;SDS011;47574;52.090;5.244;2022-08-19T08:30:13;42.2;;;28.8;;
61675;SDS011;47574;52.090;5.244;2022-08-19T08:31:53;41.8;;;28.9;;
61675;SDS011;47574;52.090;5.244;2022-08-19T08:35:08;43.0;;;30.2;;
61675;SDS011;47574;52.090;5.244;2022-08-19T08:36:48;46.4;;;28.7;;
61675;SDS011;47574;52.090;5.244;2022-08-19T08:38:25;42.5;;;29.3;;
61675;SDS011;47574;52.090;5.244;2022-08-19T08:40:02;41.0;;;28.5;;
61675;SDS011;47574;52.090;5.244;2022-08-19T08:43:33;45.7;;;31.5;;
61675;SDS011;47574;52.090;5.244;2022-08-19T08:45:15;47.0;;;32.3;;
61675;SDS011;47574;52.090;5.244;2022-08-19T08:46:55;53.2;;;35.31;;
61675;SDS011;47574;52.090;5.244;2022-08-19T08:48:38;48.3;;;34.4;;
61675;SDS011;47574;52.090;5.244;2022-08-19T08:52:05;46.7;;;33.5;;
61675;SDS011;47574;52.090;5.244;2022-08-19T08:53:47;44.7;;;32.1;;
61675;SDS011;47574;52.090;5.244;2022-08-19T08:55:27;44.2;;;31.4;;
61675;SDS011;47574;52.090;5.244;2022-08-19T08:57:07;44.8;;;32.8;;
61675;SDS011;47574;52.090;5.244;2022-08-19T08:58:56;42.0;;;30.6;;
61675;SDS011;47574;52.090;5.244;2022-08-19T09:02:20;42.2;;;29.9;;
61675;SDS011;47574;52.090;5.244;2022-08-19T09:03:56;42.0;;;29.4;;
61675;SDS011;47574;52.090;5.244;2022-08-19T09:05:42;34.9;;;26.2;;
61675;SDS011;47574;52.090;5.244;2022-08-19T09:07:29;36.6;;;25.8;;
61675;SDS011;47574;52.090;5.244;2022-08-19T09:09:32;34.6;;;25.8;;
61675;SDS011;47574;52.090;5.244;2022-08-19T09:13:08;37.6;;;26.8;;
61675;SDS011;47574;52.090;5.244;2022-08-19T09:15:01;32.4;;;23.6;;
61675;SDS011;47574;52.090;5.244;2022-08-19T09:16:41;30.5;;;21.9;;
61675;SDS011;47574;52.090;5.244;2022-08-19T09:18:18;31.9;;;22.9;;
61675;SDS011;47574;52.090;5.244;2022-08-19T09:19:56;32.1;;;23.8;;
61675;SDS011;47574;52.090;5.244;2022-08-19T09:23:11;31.6;;;22.0;;
61675;SDS011;47574;52.090;5.244;2022-08-19T09:24:48;30.3;;;22.3;;
61675;SDS011;47574;52.090;5.244;2022-08-19T09:26:24;30.3;;;22.3;;
61675;SDS011;47574;52.090;5.244;2022-08-19T09:29:39;31.7;;;23.9;;
61675;SDS011;47574;52.090;5.244;2022-08-19T09:31:16;28.6;;;22.7;;
61675;SDS011;47574;52.090;5.244;2022-08-19T09:33:00;30.5;;;22.7;;
61675;SDS011;47574;52.090;5.244;2022-08-19T09:34:37;30.8;;;22.9;;
61675;SDS011;47574;52.090;5.244;2022-08-19T09:37:53;28.1;;;22.7;;
61675;SDS011;47574;52.090;5.244;2022-08-19T09:39:30;32.21;;;25.0;;
61675;SDS011;47574;52.090;5.244;2022-08-19T09:41:07;33.71;;;26.8;;
61675;SDS011;47574;52.090;5.244;2022-08-19T09:42:48;32.8;;;26.0;;
61675;SDS011;47574;52.090;5.244;2022-08-19T09:46:00;33.0;;;26.3;;
61675;SDS011;47574;52.090;5.244;2022-08-19T09:47:38;32.0;;;26.5;;
61675;SDS011;47574;52.090;5.244;2022-08-19T09:49:14;32.0;;;26.5;;
61675;SDS011;47574;52.090;5.244;2022-08-19T09:52:28;31.5;;;26.0;;
61675;SDS011;47574;52.090;5.244;2022-08-19T09:54:04;34.21;;;25.4;;
61675;SDS011;47574;52.090;5.244;2022-08-19T09:55:41;35.71;;;25.5;;
61675;SDS011;47574;52.090;5.244;2022-08-19T09:58:54;29.9;;;24.7;;
61675;SDS011;47574;52.090;5.244;2022-08-19T10:00:32;30.5;;;24.0;;
61675;SDS011;47574;52.090;5.244;2022-08-19T10:02:09;31.6;;;25.6;;
61675;SDS011;47574;52.090;5.244;2022-08-19T10:03:47;34.21;;;26.4;;
61675;SDS011;47574;52.090;5.244;2022-08-19T10:07:35;32.0;;;26.4;;
61675;SDS011;47574;52.090;5.244;2022-08-19T10:09:12;39.9;;;30.0;;
61675;SDS011;47574;52.090;5.244;2022-08-19T10:10:50;48.6;;;39.9;;
61675;SDS011;47574;52.090;5.244;2022-08-19T10:12:27;36.0;;;29.6;;
61675;SDS011;47574;52.090;5.244;2022-08-19T10:15:43;35.5;;;28.5;;
61675;SDS011;47574;52.090;5.244;2022-08-19T10:17:20;39.71;;;32.21;;
61675;SDS011;47574;52.090;5.244;2022-08-19T10:18:57;38.9;;;30.8;;
61675;SDS011;47574;52.090;5.244;2022-08-19T10:20:35;41.2;;;31.8;;
61675;SDS011;47574;52.090;5.244;2022-08-19T10:23:51;41.2;;;33.0;;
61675;SDS011;47574;52.090;5.244;2022-08-19T10:25:32;41.9;;;33.4;;
61675;SDS011;47574;52.090;5.244;2022-08-19T10:27:09;51.2;;;40.81;;
61675;SDS011;47574;52.090;5.244;2022-08-19T10:28:46;51.2;;;40.81;;
61675;SDS011;47574;52.090;5.244;2022-08-19T10:32:00;44.1;;;34.4;;
61675;SDS011;47574;52.090;5.244;2022-08-19T10:33:38;43.0;;;33.4;;
61675;SDS011;47574;52.090;5.244;2022-08-19T10:35:14;44.8;;;33.71;;
61675;SDS011;47574;52.090;5.244;2022-08-19T10:38:28;57.9;;;43.3;;
61675;SDS011;47574;52.090;5.244;2022-08-19T10:40:06;44.7;;;34.4;;
61675;SDS011;47574;52.090;5.244;2022-08-19T10:41:44;45.9;;;35.31;;
61675;SDS011;47574;52.090;5.244;2022-08-19T10:44:57;41.3;;;32.9;;
61675;SDS011;47574;52.090;5.244;2022-08-19T10:46:36;41.0;;;32.3;;
61675;SDS011;47574;52.090;5.244;2022-08-19T10:48:16;45.6;;;33.1;;
61675;SDS011;47574;52.090;5.244;2022-08-19T10:52:46;43.8;;;33.71;;
61675;SDS011;47574;52.090;5.244;2022-08-19T10:56:50;42.4;;;33.8;;
61675;SDS011;47574;52.090;5.244;2022-08-19T10:58:26;40.31;;;31.5;;
61675;SDS011;47574;52.090;5.244;2022-08-19T11:01:40;39.81;;;31.9;;
61675;SDS011;47574;52.090;5.244;2022-08-19T11:03:19;42.6;;;32.3;;
61675;SDS011;47574;52.090;5.244;2022-08-19T11:04:56;46.3;;;34.4;;
61675;SDS011;47574;52.090;5.244;2022-08-19T11:06:32;43.6;;;32.3;;
61675;SDS011;47574;52.090;5.244;2022-08-19T11:09:47;40.71;;;31.6;;
61675;SDS011;47574;52.090;5.244;2022-08-19T11:11:24;45.2;;;32.0;;
61675;SDS011;47574;52.090;5.244;2022-08-19T11:13:00;47.3;;;33.3;;
61675;SDS011;47574;52.090;5.244;2022-08-19T11:16:14;41.3;;;31.5;;
61675;SDS011;47574;52.090;5.244;2022-08-19T11:17:54;42.3;;;28.8;;
61675;SDS011;47574;52.090;5.244;2022-08-19T11:19:32;40.71;;;31.0;;
61675;SDS011;47574;52.090;5.244;2022-08-19T11:21:10;41.4;;;31.1;;
61675;SDS011;47574;52.090;5.244;2022-08-19T11:24:27;41.8;;;31.7;;
61675;SDS011;47574;52.090;5.244;2022-08-19T11:26:04;36.0;;;29.3;;
61675;SDS011;47574;52.090;5.244;2022-08-19T11:27:42;37.0;;;30.1;;
61675;SDS011;47574;52.090;5.244;2022-08-19T11:30:58;37.6;;;29.5;;
61675;SDS011;47574;52.090;5.244;2022-08-19T11:32:36;43.6;;;32.21;;
61675;SDS011;47574;52.090;5.244;2022-08-19T11:34:14;38.9;;;29.5;;
61675;SDS011;47574;52.090;5.244;2022-08-19T11:35:57;35.0;;;27.8;;
61675;SDS011;47574;52.090;5.244;2022-08-19T11:39:14;36.21;;;28.4;;
61675;SDS011;47574;52.090;5.244;2022-08-19T11:40:54;36.21;;;29.7;;
61675;SDS011;47574;52.090;5.244;2022-08-19T11:43:04;36.6;;;29.1;;
61675;SDS011;47574;52.090;5.244;2022-08-19T11:44:40;37.31;;;30.3;;
61675;SDS011;47574;52.090;5.244;2022-08-19T11:46:17;34.4;;;29.7;;
61675;SDS011;47574;52.090;5.244;2022-08-19T11:49:31;33.6;;;27.2;;
61675;SDS011;47574;52.090;5.244;2022-08-19T11:51:09;32.71;;;27.9;;
61675;SDS011;47574;52.090;5.244;2022-08-19T11:52:53;35.71;;;28.2;;
61675;SDS011;47574;52.090;5.244;2022-08-19T11:56:07;37.5;;;27.4;;
61675;SDS011;47574;52.090;5.244;2022-08-19T11:57:45;35.0;;;28.2;;
61675;SDS011;47574;52.090;5.244;2022-08-19T11:59:22;30.4;;;27.1;;
61675;SDS011;47574;52.090;5.244;2022-08-19T12:00:58;37.6;;;30.1;;
61675;SDS011;47574;52.090;5.244;2022-08-19T12:04:12;36.9;;;29.9;;
61675;SDS011;47574;52.090;5.244;2022-08-19T12:05:48;37.1;;;30.3;;
61675;SDS011;47574;52.090;5.244;2022-08-19T12:07:25;38.71;;;30.0;;
61675;SDS011;47574;52.090;5.244;2022-08-19T12:10:42;37.4;;;31.6;;
61675;SDS011;47574;52.090;5.244;2022-08-19T12:12:19;36.9;;;31.6;;
61675;SDS011;47574;52.090;5.244;2022-08-19T12:13:56;39.5;;;31.7;;
61675;SDS011;47574;52.090;5.244;2022-08-19T12:15:34;40.4;;;32.4;;
61675;SDS011;47574;52.090;5.244;2022-08-19T12:18:50;39.0;;;31.4;;
61675;SDS011;47574;52.090;5.244;2022-08-19T12:20:27;44.9;;;34.71;;
61675;SDS011;47574;52.090;5.244;2022-08-19T12:22:05;37.31;;;32.71;;
61675;SDS011;47574;52.090;5.244;2022-08-19T12:25:19;38.9;;;31.8;;
61675;SDS011;47574;52.090;5.244;2022-08-19T12:26:56;38.5;;;31.9;;
61675;SDS011;47574;52.090;5.244;2022-08-19T12:28:33;34.4;;;29.9;;
61675;SDS011;47574;52.090;5.244;2022-08-19T12:30:11;35.6;;;28.9;;
61675;SDS011;47574;52.090;5.244;2022-08-19T12:33:27;31.1;;;26.4;;
61675;SDS011;47574;52.090;5.244;2022-08-19T12:35:04;33.0;;;26.2;;
61675;SDS011;47574;52.090;5.244;2022-08-19T12:36:42;31.8;;;24.0;;
61675;SDS011;47574;52.090;5.244;2022-08-19T12:39:55;25.2;;;22.5;;
61675;SDS011;47574;52.090;5.244;2022-08-19T12:41:32;24.3;;;21.6;;
61675;SDS011;47574;52.090;5.244;2022-08-19T12:43:09;27.1;;;21.7;;
61675;SDS011;47574;52.090;5.244;2022-08-19T12:44:45;26.5;;;21.0;;
61675;SDS011;47574;52.090;5.244;2022-08-19T12:47:58;24.6;;;21.0;;
61675;SDS011;47574;52.090;5.244;2022-08-19T12:49:36;21.2;;;17.0;;
61675;SDS011;47574;52.090;5.244;2022-08-19T12:51:15;20.5;;;16.4;;
61675;SDS011;47574;52.090;5.244;2022-08-19T12:54:30;16.0;;;13.7;;
61675;SDS011;47574;52.090;5.244;2022-08-19T12:56:07;15.9;;;13.7;;
61675;SDS011;47574;52.090;5.244;2022-08-19T12:57:48;17.0;;;14.2;;
61675;SDS011;47574;52.090;5.244;2022-08-19T12:59:24;15.7;;;12.7;;
61675;SDS011;47574;52.090;5.244;2022-08-19T13:02:45;12.3;;;11.0;;
61675;SDS011;47574;52.090;5.244;2022-08-19T13:04:25;10.21;;;8.71;;